CheckWX is a tool to help pilots better visualize weather data.  It is not intended as a substitute for an official pre-flight weather briefing.

14:48:47 UTC

LIRE TAF
Pratica Di Mare Airport
Pomezia, Italy
TAF LIRE 231400Z 2315/2324 30005KT CAVOK

Mar-23@
15:00 UTC

Mar-23 @ 15:00 UTC

Mar-24@
00:00 UTC

Mar-24 @ 00:00 UTC

TAF LIRE 231400Z 2315/2324 30005KT CAVOK
Wind
  • 300° at 5 KTS
Conditions
No significant weather
Cloud Levels
  • No significant clouds